createdAt,value
2023-03-24T00:01:08.607Z,76.71
2023-03-24T00:03:38.260Z,76.79
2023-03-24T00:06:08.948Z,77.20
2023-03-24T00:08:38.154Z,77.45
2023-03-24T00:11:08.576Z,77.57
2023-03-24T00:13:38.554Z,77.42
2023-03-24T00:16:17.184Z,77.55
2023-03-24T00:18:50.740Z,77.94
2023-03-24T00:21:21.971Z,77.78
2023-03-24T00:23:51.148Z,77.55
2023-03-24T00:26:19.628Z,77.25
2023-03-24T00:28:53.225Z,77.48
2023-03-24T00:31:25.161Z,77.62
2023-03-24T00:33:54.489Z,77.58
2023-03-24T00:36:25.043Z,77.69
2023-03-24T00:38:54.644Z,77.28
2023-03-24T00:41:28.215Z,77.07
2023-03-24T00:44:00.702Z,77.03
2023-03-24T00:46:30.266Z,76.74
2023-03-24T00:49:07.512Z,76.87
2023-03-24T00:51:41.843Z,77.14
2023-03-24T00:54:12.887Z,77.41
2023-03-24T00:56:43.994Z,77.77
2023-03-24T00:59:14.218Z,78.01
2023-03-24T01:01:43.922Z,77.89
2023-03-24T01:04:14.456Z,77.91
2023-03-24T01:06:45.192Z,77.72
2023-03-24T01:09:13.876Z,77.95
2023-03-24T01:11:45.636Z,78.16
2023-03-24T01:14:14.840Z,78.24
2023-03-24T01:16:43.678Z,78.06
2023-03-24T01:19:12.505Z,77.66
2023-03-24T01:21:42.570Z,77.58
2023-03-24T01:24:11.231Z,77.32
2023-03-24T01:26:41.425Z,77.37
2023-03-24T01:29:10.320Z,77.49
2023-03-24T01:31:39.440Z,77.82
2023-03-24T01:34:08.814Z,78.39
2023-03-24T01:36:38.836Z,78.89
2023-03-24T01:39:08.042Z,79.44
2023-03-24T01:41:38.327Z,79.72
2023-03-24T01:44:25.870Z,80.01
2023-03-24T01:46:55.899Z,80.29
2023-03-24T01:49:26.760Z,80.24
2023-03-24T01:51:57.905Z,79.94
2023-03-24T01:54:34.858Z,79.33
2023-03-24T01:57:14.805Z,79.22
2023-03-24T01:59:47.335Z,79.50
2023-03-24T02:02:25.353Z,79.96
2023-03-24T02:05:02.625Z,80.11
2023-03-24T02:08:20.111Z,80.82
2023-03-24T02:10:50.535Z,80.61
2023-03-24T02:13:19.020Z,81.33
2023-03-24T02:16:03.294Z,81.73
2023-03-24T02:18:47.766Z,81.96
2023-03-24T02:21:38.422Z,82.36
2023-03-24T02:24:32.340Z,82.44
2023-03-24T02:27:32.933Z,82.45
2023-03-24T02:30:24.880Z,82.12
2023-03-24T02:33:14.361Z,82.12
2023-03-24T02:35:55.937Z,82.47
2023-03-24T02:38:27.990Z,82.23
2023-03-24T02:41:09.069Z,82.22
2023-03-24T02:43:57.416Z,82.35
2023-03-24T02:46:48.117Z,82.18
2023-03-24T02:49:39.331Z,82.15
2023-03-24T02:52:15.083Z,81.95
2023-03-24T02:54:52.473Z,81.89
2023-03-24T02:57:44.088Z,81.81
2023-03-24T03:00:47.253Z,81.65
2023-03-24T03:03:40.058Z,81.17
2023-03-24T03:06:18.289Z,80.90
2023-03-24T03:08:49.702Z,81.16
2023-03-24T03:11:19.097Z,80.41
2023-03-24T03:13:54.963Z,79.97
2023-03-24T03:16:34.864Z,80.11
2023-03-24T03:19:10.215Z,80.12
2023-03-24T03:21:43.183Z,80.89
2023-03-24T03:24:20.258Z,81.50
2023-03-24T03:27:00.484Z,81.53
2023-03-24T03:29:34.430Z,81.87
2023-03-24T03:32:12.996Z,81.84
2023-03-24T03:35:20.903Z,81.69
2023-03-24T03:38:20.104Z,81.41
2023-03-24T03:40:56.651Z,81.02
2023-03-24T03:43:28.635Z,81.47
2023-03-24T03:46:12.968Z,81.57
2023-03-24T03:48:42.799Z,82.13
2023-03-24T03:51:14.333Z,81.98
2023-03-24T03:54:13.775Z,81.91
2023-03-24T03:56:43.375Z,82.14
2023-03-24T03:59:25.898Z,81.63
2023-03-24T04:01:55.024Z,81.60
2023-03-24T04:04:38.332Z,81.50
2023-03-24T04:07:53.375Z,81.53
2023-03-24T04:11:06.803Z,81.08
2023-03-24T04:13:50.196Z,80.87
2023-03-24T04:16:56.755Z,81.06
2023-03-24T04:19:39.115Z,80.53
2023-03-24T04:22:24.392Z,80.42
2023-03-24T04:25:08.334Z,80.72
2023-03-24T04:27:48.399Z,80.06
2023-03-24T04:30:25.990Z,79.23
2023-03-24T04:33:07.682Z,79.42
2023-03-24T04:35:44.282Z,79.21
2023-03-24T04:38:38.637Z,78.61
2023-03-24T04:41:30.249Z,78.47
2023-03-24T04:44:08.570Z,78.59
2023-03-24T04:46:44.959Z,78.18
2023-03-24T04:49:19.875Z,77.29
2023-03-24T04:51:49.869Z,77.12
2023-03-24T04:54:30.136Z,76.76
2023-03-24T04:57:04.842Z,76.54
2023-03-24T04:59:49.826Z,76.61
2023-03-24T05:02:21.606Z,76.83
2023-03-24T05:05:08.619Z,76.64
2023-03-24T05:07:44.351Z,76.63
2023-03-24T05:10:15.300Z,76.54
2023-03-24T05:12:50.678Z,77.04
2023-03-24T05:15:37.858Z,77.53
2023-03-24T05:18:25.077Z,77.77
2023-03-24T05:20:54.777Z,77.84
2023-03-24T05:23:23.781Z,77.93
2023-03-24T05:25:54.530Z,77.97
2023-03-24T05:28:25.960Z,77.66
2023-03-24T05:30:55.834Z,77.15
2023-03-24T05:33:43.817Z,76.59
2023-03-24T05:36:14.889Z,76.24
2023-03-24T05:38:48.858Z,75.87
2023-03-24T05:41:17.663Z,76.01
2023-03-24T05:43:46.643Z,76.05
2023-03-24T05:46:16.576Z,76.11
2023-03-24T05:48:47.177Z,76.35
2023-03-24T05:51:27.878Z,76.60
2023-03-24T05:54:06.511Z,76.75
2023-03-24T05:56:42.075Z,76.52
2023-03-24T05:59:17.483Z,76.39
2023-03-24T06:02:08.711Z,75.94
2023-03-24T06:04:49.466Z,75.04
2023-03-24T06:07:26.962Z,73.00
2023-03-24T06:10:03.241Z,70.34
2023-03-24T06:12:39.175Z,68.62
2023-03-24T06:15:09.117Z,66.91
2023-03-24T06:17:46.147Z,66.16
2023-03-24T06:20:24.669Z,65.40
2023-03-24T06:23:28.479Z,64.72
2023-03-24T06:26:11.901Z,64.85
2023-03-24T06:28:58.407Z,64.57
2023-03-24T06:31:33.037Z,63.27
2023-03-24T06:34:04.439Z,62.07
2023-03-24T06:36:35.226Z,61.09
2023-03-24T06:39:06.292Z,59.68
2023-03-24T06:41:35.048Z,57.76
2023-03-24T06:44:10.286Z,56.46
2023-03-24T06:46:40.966Z,56.61
2023-03-24T06:49:11.357Z,55.17
2023-03-24T06:51:40.057Z,53.55
2023-03-24T06:54:09.753Z,53.16
2023-03-24T06:56:38.365Z,52.49
2023-03-24T06:59:08.236Z,51.77
2023-03-24T07:01:38.103Z,51.38
2023-03-24T07:04:17.282Z,51.23
2023-03-24T07:07:19.153Z,50.54
2023-03-24T07:09:51.015Z,50.80
2023-03-24T07:12:19.922Z,51.53
2023-03-24T07:14:50.527Z,51.68
2023-03-24T07:17:22.015Z,51.37
2023-03-24T07:20:11.558Z,50.87
2023-03-24T07:22:48.465Z,51.14
2023-03-24T07:25:41.065Z,50.84
2023-03-24T07:28:24.715Z,51.35
2023-03-24T07:30:56.182Z,51.02
2023-03-24T07:33:26.900Z,50.95
2023-03-24T07:35:57.663Z,51.08
2023-03-24T07:38:29.708Z,51.52
2023-03-24T07:41:02.481Z,51.62
2023-03-24T07:43:32.716Z,51.02
2023-03-24T07:46:23.231Z,50.58
2023-03-24T07:48:53.433Z,51.34
2023-03-24T07:51:22.668Z,51.80
2023-03-24T07:54:14.891Z,51.89
2023-03-24T07:56:48.514Z,52.21
2023-03-24T07:59:18.069Z,52.70
2023-03-24T08:01:57.566Z,53.05
2023-03-24T08:04:38.793Z,53.54
2023-03-24T08:07:19.649Z,53.19
2023-03-24T08:09:48.645Z,53.31
2023-03-24T08:12:20.516Z,53.31
2023-03-24T08:14:49.527Z,53.08
2023-03-24T08:17:18.497Z,52.97
2023-03-24T08:20:00.085Z,52.59
2023-03-24T08:22:31.463Z,52.51
2023-03-24T08:25:00.994Z,52.38
2023-03-24T08:27:29.688Z,52.27
2023-03-24T08:29:58.829Z,51.88
2023-03-24T08:32:27.374Z,52.58
2023-03-24T08:34:58.388Z,53.07
2023-03-24T08:37:26.961Z,52.30
2023-03-24T08:39:59.058Z,51.29
2023-03-24T08:42:27.766Z,51.86
2023-03-24T08:44:56.581Z,51.65
2023-03-24T08:47:44.300Z,51.74
2023-03-24T08:50:13.315Z,51.40
2023-03-24T08:52:42.320Z,51.35
2023-03-24T08:55:11.792Z,50.70
2023-03-24T08:57:44.483Z,50.97
2023-03-24T09:00:15.555Z,49.39
2023-03-24T09:02:54.359Z,49.74
2023-03-24T09:05:36.624Z,49.87
2023-03-24T09:08:10.231Z,48.83
2023-03-24T09:10:39.937Z,49.02
2023-03-24T09:13:09.189Z,48.23
2023-03-24T09:15:38.115Z,47.80
2023-03-24T09:18:06.654Z,47.97
2023-03-24T09:20:36.329Z,47.86
2023-03-24T09:23:05.106Z,47.30
2023-03-24T09:25:34.610Z,46.53
2023-03-24T09:28:18.767Z,46.74
2023-03-24T09:30:48.160Z,46.96
2023-03-24T09:33:19.015Z,47.11
2023-03-24T09:35:56.462Z,46.86
2023-03-24T09:38:26.609Z,47.07
2023-03-24T09:41:03.225Z,46.31
2023-03-24T09:43:40.360Z,46.01
2023-03-24T09:46:16.459Z,45.85
2023-03-24T09:48:52.951Z,45.68
2023-03-24T09:51:26.090Z,45.84
2023-03-24T09:54:13.456Z,45.81
2023-03-24T09:56:44.686Z,45.51
2023-03-24T09:59:35.104Z,45.42
2023-03-24T10:02:14.307Z,46.10
2023-03-24T10:04:44.192Z,45.77
2023-03-24T10:07:25.581Z,45.44
2023-03-24T10:09:59.139Z,45.79
2023-03-24T10:12:37.702Z,45.44
2023-03-24T10:15:24.297Z,45.10
2023-03-24T10:18:13.741Z,45.98
2023-03-24T10:21:07.495Z,45.82
2023-03-24T10:23:59.995Z,46.37
2023-03-24T10:26:32.473Z,45.94
2023-03-24T10:29:59.013Z,46.13
2023-03-24T10:32:43.343Z,45.31
2023-03-24T10:35:20.059Z,45.39
2023-03-24T10:37:49.136Z,45.39
2023-03-24T10:40:23.515Z,45.77
2023-03-24T10:43:06.297Z,46.28
2023-03-24T10:45:37.363Z,46.48
2023-03-24T10:48:06.294Z,47.01
2023-03-24T10:50:42.377Z,46.11
2023-03-24T10:53:21.000Z,46.65
2023-03-24T10:55:51.171Z,46.22
2023-03-24T10:58:36.003Z,45.74
2023-03-24T11:01:24.267Z,45.58
2023-03-24T11:04:00.938Z,45.44
2023-03-24T11:06:30.083Z,45.54
2023-03-24T11:09:41.154Z,45.22
2023-03-24T11:12:29.973Z,45.55
2023-03-24T11:15:17.617Z,45.75
2023-03-24T11:18:22.520Z,45.75
2023-03-24T11:20:57.520Z,45.83
2023-03-24T11:23:32.952Z,45.97
2023-03-24T11:26:23.564Z,46.15
2023-03-24T11:28:53.780Z,46.08
2023-03-24T11:31:30.744Z,45.59
2023-03-24T11:34:20.996Z,45.06
2023-03-24T11:36:54.142Z,44.96
2023-03-24T11:39:24.230Z,44.75
2023-03-24T11:42:04.171Z,44.51
2023-03-24T11:44:52.134Z,44.86
2023-03-24T11:47:33.141Z,44.94
2023-03-24T11:50:11.224Z,45.17
2023-03-24T11:52:46.260Z,45.33
2023-03-24T11:55:42.598Z,45.25
2023-03-24T11:58:28.479Z,45.34
2023-03-24T12:01:02.172Z,45.29
2023-03-24T12:04:26.471Z,44.96
2023-03-24T12:07:32.289Z,44.99
2023-03-24T12:10:24.261Z,45.46
2023-03-24T12:13:18.984Z,45.51
2023-03-24T12:16:10.787Z,45.78
2023-03-24T12:19:19.015Z,45.65
2023-03-24T12:22:00.177Z,45.89
2023-03-24T12:25:08.334Z,45.64
2023-03-24T12:27:56.385Z,45.91
2023-03-24T12:30:37.506Z,45.93
2023-03-24T12:33:28.612Z,45.90
2023-03-24T12:36:12.936Z,45.56
2023-03-24T12:38:54.830Z,45.53
2023-03-24T12:41:36.258Z,45.82
2023-03-24T12:44:22.953Z,45.61
2023-03-24T12:47:07.815Z,45.92
2023-03-24T12:49:58.727Z,45.81
2023-03-24T12:53:06.813Z,46.11
2023-03-24T12:55:41.456Z,45.68
2023-03-24T12:58:12.189Z,45.55
2023-03-24T13:01:01.579Z,45.67
2023-03-24T13:03:47.150Z,45.72
2023-03-24T13:06:42.193Z,45.91
2023-03-24T13:09:19.949Z,45.40
2023-03-24T13:11:51.914Z,45.42
2023-03-24T13:14:24.267Z,45.44
2023-03-24T13:17:03.866Z,45.38
2023-03-24T13:19:32.714Z,45.44
2023-03-24T13:22:01.716Z,45.59
2023-03-24T13:24:33.630Z,45.53
2023-03-24T13:27:44.038Z,45.21
2023-03-24T13:30:31.658Z,45.46
2023-03-24T13:33:16.322Z,45.74
2023-03-24T13:35:58.440Z,45.57
2023-03-24T13:38:29.669Z,45.57
2023-03-24T13:40:58.879Z,45.63
2023-03-24T13:43:31.647Z,45.65
2023-03-24T13:46:14.007Z,45.90
2023-03-24T13:48:51.300Z,45.81
2023-03-24T13:51:27.842Z,45.68
2023-03-24T13:54:26.607Z,46.01
2023-03-24T13:57:17.511Z,45.97
2023-03-24T14:00:17.526Z,46.09
2023-03-24T14:02:52.917Z,46.16
2023-03-24T14:05:58.994Z,46.29
2023-03-24T14:08:53.850Z,46.26
2023-03-24T14:11:35.021Z,46.29
2023-03-24T14:14:14.035Z,46.62
2023-03-24T14:16:47.655Z,46.93
2023-03-24T14:19:17.978Z,46.80
2023-03-24T14:21:53.106Z,46.78
2023-03-24T14:24:27.480Z,47.02
2023-03-24T14:26:56.676Z,47.01
2023-03-24T14:29:48.758Z,47.15
2023-03-24T14:32:21.600Z,46.99
2023-03-24T14:34:59.032Z,47.29
2023-03-24T14:37:28.506Z,47.33
2023-03-24T14:39:57.724Z,47.31
2023-03-24T14:42:32.760Z,47.32
2023-03-24T14:45:05.341Z,47.17
2023-03-24T14:47:35.078Z,47.32
2023-03-24T14:50:21.545Z,47.39
2023-03-24T14:52:59.364Z,47.42
2023-03-24T14:55:28.047Z,47.56
2023-03-24T14:58:00.755Z,47.82
2023-03-24T15:01:08.087Z,47.84
2023-03-24T15:04:07.672Z,47.98
2023-03-24T15:06:47.932Z,47.94
2023-03-24T15:09:18.324Z,48.19
2023-03-24T15:11:47.606Z,48.26
2023-03-24T15:14:24.002Z,48.26
2023-03-24T15:17:24.715Z,48.26
2023-03-24T15:19:55.436Z,48.26
2023-03-24T15:22:25.668Z,48.27
2023-03-24T15:24:54.749Z,48.49
2023-03-24T15:27:34.748Z,48.76
2023-03-24T15:30:06.605Z,49.04
2023-03-24T15:32:39.665Z,49.12
2023-03-24T15:35:09.102Z,49.14
2023-03-24T15:37:43.381Z,49.09
2023-03-24T15:40:27.308Z,49.24
2023-03-24T15:43:01.533Z,49.43
2023-03-24T15:45:33.821Z,49.42
2023-03-24T15:48:08.720Z,49.55
2023-03-24T15:50:41.990Z,49.84
2023-03-24T15:53:20.878Z,49.80
2023-03-24T15:56:07.382Z,49.93
2023-03-24T15:58:56.468Z,50.12
2023-03-24T16:01:40.296Z,49.94
2023-03-24T16:04:14.537Z,50.27
2023-03-24T16:06:48.601Z,50.20
2023-03-24T16:09:22.248Z,50.52
2023-03-24T16:11:51.744Z,50.55
2023-03-24T16:14:23.955Z,50.67
2023-03-24T16:16:57.387Z,50.89
2023-03-24T16:19:26.559Z,51.06
2023-03-24T16:21:55.629Z,51.04
2023-03-24T16:24:24.899Z,51.47
2023-03-24T16:26:53.745Z,51.85
2023-03-24T16:29:26.797Z,52.00
2023-03-24T16:31:57.157Z,52.15
2023-03-24T16:34:26.655Z,52.45
2023-03-24T16:36:58.415Z,52.70
2023-03-24T16:39:29.320Z,52.87
2023-03-24T16:42:01.965Z,53.16
